Time;durP1;ratioP1;P1;durP2;ratioP2;P2;SDS_P1;SDS_P2;PMS_P1;PMS_P2;Temp;Humidity;BMP_temperature;BMP_pressure;BME280_temperature;BME280_humidity;BME280_pressure;Samples;Min_cycle;Max_cycle;Signal;HPM_P1;HPM_P2
2021/09/16 00:01:10;;;;;;;24.15;14.40;;;;;;;17.93;93.26;101480.27;1734584;82;20927;-81
2021/09/16 00:03:38;;;;;;;22.55;12.28;;;;;;;17.95;93.36;101485.40;1734778;82;20951;-80
2021/09/16 00:06:05;;;;;;;19.85;12.80;;;;;;;17.95;93.44;101480.98;1734875;82;20972;-81
2021/09/16 00:08:33;;;;;;;23.75;12.53;;;;;;;17.95;93.50;101481.46;1734627;82;22067;-81
2021/09/16 00:11:00;;;;;;;26.70;12.65;;;;;;;17.97;93.51;101483.47;1734766;82;20855;-83
2021/09/16 00:13:27;;;;;;;21.65;13.38;;;;;;;17.97;93.44;101489.55;1734932;82;21670;-82
2021/09/16 00:15:55;;;;;;;23.18;13.10;;;;;;;17.99;93.34;101490.75;1734825;82;21454;-81
2021/09/16 00:18:22;;;;;;;23.50;13.95;;;;;;;17.99;93.25;101484.19;1734955;82;20986;-81
2021/09/16 00:20:52;;;;;;;17.42;12.28;;;;;;;18.03;93.25;101490.02;1734777;82;21513;-81
2021/09/16 00:23:18;;;;;;;17.52;12.10;;;;;;;18.06;93.34;101490.56;1734857;82;20939;-80
2021/09/16 00:25:47;;;;;;;22.10;12.63;;;;;;;18.10;93.37;101491.98;1734568;82;21025;-79
2021/09/16 00:28:14;;;;;;;26.12;13.13;;;;;;;18.17;93.41;101490.98;1734642;82;21018;-79
2021/09/16 00:30:41;;;;;;;17.70;11.43;;;;;;;18.21;93.52;101491.09;1734868;82;21025;-79
2021/09/16 00:33:09;;;;;;;17.82;11.80;;;;;;;18.23;93.82;101489.98;1734816;82;21426;-80
2021/09/16 00:35:37;;;;;;;17.10;11.80;;;;;;;18.28;94.00;101493.04;1734640;82;20847;-82
2021/09/16 00:38:04;;;;;;;16.52;11.28;;;;;;;18.30;94.08;101494.23;1738181;80;21016;-81
2021/09/16 00:40:33;;;;;;;18.30;11.45;;;;;;;18.31;94.31;101493.28;1742240;81;21006;-80
2021/09/16 00:43:00;;;;;;;18.82;11.28;;;;;;;18.31;94.45;101490.18;1742314;82;21453;-81
2021/09/16 00:45:26;;;;;;;15.65;10.88;;;;;;;18.32;94.52;101495.77;1742433;82;21068;-81
2021/09/16 00:47:54;;;;;;;20.92;10.90;;;;;;;18.33;94.58;101492.66;1742234;82;21002;-80
2021/09/16 00:50:23;;;;;;;14.45;10.00;;;;;;;18.34;94.85;101493.02;1742361;82;21478;-80
2021/09/16 00:52:51;;;;;;;16.52;10.38;;;;;;;18.34;95.24;101487.77;1742194;82;20999;-80
2021/09/16 00:55:18;;;;;;;14.23;9.98;;;;;;;18.35;95.59;101492.88;1742378;82;21054;-80
2021/09/16 00:57:53;;;;;;;15.75;9.68;;;;;;;18.36;95.91;101493.23;1715368;82;21549;-80
2021/09/16 01:00:21;;;;;;;14.73;9.23;;;;;;;18.38;96.54;101490.46;1742490;82;20930;-80
2021/09/16 01:02:48;;;;;;;13.55;9.60;;;;;;;18.36;97.04;101485.83;1742474;81;20962;-81
2021/09/16 01:05:15;;;;;;;15.35;9.35;;;;;;;18.36;97.51;101481.89;1742736;81;21532;-80
2021/09/16 01:07:42;;;;;;;14.38;8.58;;;;;;;18.34;97.89;101479.89;1742669;82;20978;-80
2021/09/16 01:10:11;;;;;;;13.30;9.48;;;;;;;18.31;98.36;101481.46;1742215;82;21119;-81
2021/09/16 01:12:40;;;;;;;14.33;9.30;;;;;;;18.28;98.90;101479.09;1742227;82;21706;-80
2021/09/16 01:15:10;;;;;;;17.02;8.70;;;;;;;18.27;99.18;101480.05;1742474;82;20958;-80
2021/09/16 01:17:40;;;;;;;15.48;9.68;;;;;;;18.26;99.46;101483.16;1742573;81;20963;-79
2021/09/16 01:20:07;;;;;;;15.72;8.80;;;;;;;18.25;99.55;101486.73;1742421;82;20895;-80
2021/09/16 01:22:36;;;;;;;16.67;9.50;;;;;;;18.24;99.46;101486.88;1742249;82;21485;-80
2021/09/16 01:25:04;;;;;;;12.70;9.38;;;;;;;18.21;99.36;101485.83;1742307;82;21017;-79
2021/09/16 01:27:31;;;;;;;15.40;10.28;;;;;;;18.17;99.24;101483.10;1742188;81;20977;-80
2021/09/16 01:29:58;;;;;;;16.35;9.73;;;;;;;18.13;99.10;101479.06;1742240;82;21518;-80
2021/09/16 01:32:25;;;;;;;13.75;9.70;;;;;;;18.09;99.15;101481.63;1742452;81;21576;-80
2021/09/16 01:34:53;;;;;;;15.63;9.80;;;;;;;18.04;99.09;101476.74;1742060;81;21135;-79
2021/09/16 01:37:21;;;;;;;12.88;9.60;;;;;;;18.00;99.06;101475.83;1742057;80;20979;-79
2021/09/16 01:39:51;;;;;;;16.12;9.88;;;;;;;17.96;99.10;101482.62;1713401;83;20879;-80
2021/09/16 01:42:20;;;;;;;19.60;10.23;;;;;;;17.92;99.21;101481.72;1744611;82;20903;-80
2021/09/16 01:44:47;;;;;;;12.07;9.85;;;;;;;17.89;99.20;101478.04;1713085;83;21038;-80
2021/09/16 01:47:14;;;;;;;12.82;10.35;;;;;;;17.84;99.20;101481.03;1744337;82;21117;-80
2021/09/16 01:49:41;;;;;;;18.65;10.20;;;;;;;17.78;99.27;101473.67;1713068;83;21896;-80
2021/09/16 01:52:10;;;;;;;13.43;9.60;;;;;;;17.74;99.46;101480.13;1744389;82;20938;-81
2021/09/16 01:54:36;;;;;;;13.05;9.78;;;;;;;17.71;99.40;101483.52;1713276;83;21037;-80
2021/09/16 01:57:04;;;;;;;15.65;10.45;;;;;;;17.66;99.31;101483.88;1744846;82;21568;-81
2021/09/16 01:59:30;;;;;;;17.17;10.32;;;;;;;17.63;99.50;101480.67;1718289;83;21806;-81
2021/09/16 02:01:58;;;;;;;14.05;10.03;;;;;;;17.61;99.69;101469.48;1718442;83;20880;-80
2021/09/16 02:04:25;;;;;;;12.53;10.03;;;;;;;17.57;99.59;101476.77;1718479;83;21098;-81
2021/09/16 02:06:53;;;;;;;16.52;10.45;;;;;;;17.54;99.59;101475.68;1713756;83;20959;-81
2021/09/16 02:09:20;;;;;;;15.70;10.35;;;;;;;17.51;99.55;101476.41;1744564;82;21426;-79
2021/09/16 02:11:46;;;;;;;14.23;9.83;;;;;;;17.43;99.34;101472.61;1713227;83;21093;-79
2021/09/16 02:14:15;;;;;;;13.80;9.75;;;;;;;17.39;99.56;101476.44;1744610;82;21599;-79
2021/09/16 02:16:42;;;;;;;14.85;9.78;;;;;;;17.37;99.84;101473.12;1718018;83;21615;-80
2021/09/16 02:19:10;;;;;;;16.50;9.95;;;;;;;17.36;99.85;101467.98;1744277;82;21434;-79
2021/09/16 02:21:39;;;;;;;23.15;14.25;;;;;;;17.36;99.99;101462.26;1744713;82;20895;-79
2021/09/16 02:24:06;;;;;;;21.85;15.38;;;;;;;17.37;99.98;101463.09;1744384;82;21209;-80
2021/09/16 02:26:33;;;;;;;20.12;14.93;;;;;;;17.35;99.91;101465.86;1744264;82;20944;-80
2021/09/16 02:28:59;;;;;;;27.50;18.55;;;;;;;17.34;99.89;101467.28;1744465;82;20995;-80
2021/09/16 02:31:26;;;;;;;30.82;21.77;;;;;;;17.31;99.93;101467.06;1744334;82;21592;-80
2021/09/16 02:33:53;;;;;;;32.55;22.85;;;;;;;17.31;99.88;101468.38;1744439;82;21005;-80
2021/09/16 02:36:23;;;;;;;38.78;27.90;;;;;;;17.30;99.77;101471.94;1744667;81;21624;-81
2021/09/16 02:38:52;;;;;;;49.65;31.00;;;;;;;17.27;99.78;101473.51;1746752;82;21033;-80
2021/09/16 02:41:20;;;;;;;62.33;36.20;;;;;;;17.23;99.58;101470.77;1749502;82;21598;-80
2021/09/16 02:43:48;;;;;;;53.33;37.75;;;;;;;17.18;99.44;101478.19;1749588;82;20946;-79
2021/09/16 02:46:15;;;;;;;52.23;36.77;;;;;;;17.17;99.32;101483.55;1718135;83;21030;-80
2021/09/16 02:48:42;;;;;;;48.02;30.27;;;;;;;17.14;99.06;101489.03;1718345;82;21983;-81
2021/09/16 02:51:09;;;;;;;31.80;22.48;;;;;;;17.10;98.69;101486.33;1718455;83;20888;-84
2021/09/16 02:53:37;;;;;;;27.80;17.55;;;;;;;17.04;98.50;101488.94;1718388;82;20993;-78
2021/09/16 02:56:05;;;;;;;27.27;17.10;;;;;;;16.99;98.41;101495.52;1718398;83;20964;-79
2021/09/16 02:58:34;;;;;;;30.10;17.55;;;;;;;16.93;98.81;101489.82;1718403;83;21037;-82
2021/09/16 03:01:02;;;;;;;28.02;17.40;;;;;;;16.93;99.44;101492.91;1718278;83;21136;-81
2021/09/16 03:03:28;;;;;;;25.92;17.15;;;;;;;16.94;99.66;101496.70;1718139;83;21553;-81
2021/09/16 03:05:55;;;;;;;30.45;17.62;;;;;;;16.97;99.85;101492.19;1718168;83;21035;-81
2021/09/16 03:08:24;;;;;;;25.52;17.07;;;;;;;17.01;99.96;101493.63;1718278;82;21085;-81
2021/09/16 03:10:53;;;;;;;28.23;15.85;;;;;;;17.07;99.81;101498.37;1749627;81;20998;-81
2021/09/16 03:13:21;;;;;;;26.77;16.27;;;;;;;17.10;99.77;101497.66;1718184;83;21169;-81
2021/09/16 03:15:48;;;;;;;28.05;17.67;;;;;;;17.14;99.79;101492.50;1749611;82;20858;-81
2021/09/16 03:18:15;;;;;;;25.97;16.40;;;;;;;17.17;99.74;101497.50;1749548;82;21088;-81
2021/09/16 03:20:42;;;;;;;23.90;15.43;;;;;;;17.20;99.63;101501.19;1718106;83;21554;-81
2021/09/16 03:23:09;;;;;;;34.55;24.95;;;;;;;17.21;99.66;101496.30;1718263;82;21475;-81
2021/09/16 03:25:38;;;;;;;34.83;26.80;;;;;;;17.22;99.81;101500.60;1718604;82;21314;-82
2021/09/16 03:28:06;;;;;;;32.42;24.15;;;;;;;17.22;100.00;101499.77;1718211;82;21523;-80
2021/09/16 03:30:32;;;;;;;31.20;24.92;;;;;;;17.19;100.00;101495.61;1718405;83;20944;-81
2021/09/16 03:32:59;;;;;;;42.35;27.13;;;;;;;17.18;100.00;101498.34;1718472;82;21031;-81
2021/09/16 03:35:26;;;;;;;38.63;27.85;;;;;;;17.17;100.00;101500.59;1718523;83;21007;-81
2021/09/16 03:37:54;;;;;;;28.83;20.50;;;;;;;17.17;100.00;101487.48;1718151;82;20976;-80
2021/09/16 03:40:21;;;;;;;23.07;17.35;;;;;;;17.14;100.00;101483.32;1720919;82;20971;-83
2021/09/16 03:42:50;;;;;;;24.50;15.32;;;;;;;17.08;100.00;101479.05;1718546;83;20979;-83
2021/09/16 03:45:18;;;;;;;22.15;14.20;;;;;;;17.02;100.00;101478.22;1725632;83;20998;-81
2021/09/16 03:47:46;;;;;;;16.37;12.88;;;;;;;16.95;100.00;101476.56;1731768;82;21011;-82
2021/09/16 03:50:12;;;;;;;18.70;11.93;;;;;;;16.91;100.00;101482.53;1731940;82;21153;-82
2021/09/16 03:52:39;;;;;;;18.42;11.73;;;;;;;16.90;100.00;101487.44;1731537;82;20958;-80
2021/09/16 03:55:09;;;;;;;17.25;11.40;;;;;;;16.90;100.00;101490.06;1731789;81;20923;-81
2021/09/16 03:57:38;;;;;;;15.40;11.05;;;;;;;16.87;100.00;101492.09;1731657;82;20990;-80
2021/09/16 04:00:06;;;;;;;19.52;10.80;;;;;;;16.86;100.00;101486.01;1731359;82;21532;-81
2021/09/16 04:02:35;;;;;;;14.58;10.75;;;;;;;16.86;100.00;101491.25;1731925;82;21121;-81
2021/09/16 04:05:02;;;;;;;13.08;9.65;;;;;;;16.87;100.00;101496.86;1731633;82;21446;-81
2021/09/16 04:07:28;;;;;;;12.88;10.82;;;;;;;16.88;100.00;101499.81;1731694;81;20947;-81
2021/09/16 04:09:55;;;;;;;17.90;10.85;;;;;;;16.91;100.00;101490.90;1731788;82;21002;-82
2021/09/16 04:12:23;;;;;;;17.92;11.03;;;;;;;16.94;100.00;101493.28;1731842;81;20975;-81
2021/09/16 04:14:53;;;;;;;20.12;10.65;;;;;;;16.93;100.00;101492.44;1731640;82;21462;-80
2021/09/16 04:17:22;;;;;;;21.25;10.15;;;;;;;16.93;100.00;101495.53;1731645;82;20840;-80
2021/09/16 04:19:48;;;;;;;21.52;10.18;;;;;;;16.93;100.00;101502.92;1731932;82;21016;-81
2021/09/16 04:22:15;;;;;;;24.72;11.35;;;;;;;16.96;100.00;101509.71;1732065;82;20959;-81
2021/09/16 04:24:46;;;;;;;17.80;9.78;;;;;;;16.99;100.00;101509.47;1731697;82;20962;-79
2021/09/16 04:27:13;;;;;;;20.37;11.55;;;;;;;17.06;100.00;101521.61;1731519;82;21152;-80
2021/09/16 04:29:41;;;;;;;19.00;10.50;;;;;;;17.09;100.00;101513.03;1731731;82;20879;-80
2021/09/16 04:32:10;;;;;;;18.25;10.85;;;;;;;17.15;100.00;101519.56;1731965;82;20932;-80
2021/09/16 04:34:37;;;;;;;13.03;9.70;;;;;;;17.20;100.00;101522.67;1731430;82;21509;-80
2021/09/16 04:37:05;;;;;;;19.85;11.75;;;;;;;17.25;100.00;101517.87;1731815;82;21010;-80
2021/09/16 04:39:33;;;;;;;17.37;10.55;;;;;;;17.31;100.00;101513.45;1711157;82;21597;-80
2021/09/16 04:42:01;;;;;;;19.00;9.80;;;;;;;17.37;100.00;101516.88;1696650;84;21025;-80
2021/09/16 04:44:28;;;;;;;12.98;10.23;;;;;;;17.44;100.00;101511.50;1696282;84;20981;-80
2021/09/16 04:46:55;;;;;;;14.20;10.00;;;;;;;17.49;100.00;101513.26;1696303;84;21073;-79
2021/09/16 04:49:21;;;;;;;16.93;9.80;;;;;;;17.55;100.00;101513.27;1696118;84;21513;-80
2021/09/16 04:51:48;;;;;;;24.45;9.60;;;;;;;17.60;100.00;101510.64;1696120;84;21976;-81
2021/09/16 04:54:16;;;;;;;14.65;10.05;;;;;;;17.65;100.00;101511.55;1695927;84;21061;-82
2021/09/16 04:56:43;;;;;;;14.25;9.98;;;;;;;17.70;100.00;101514.66;1696324;84;21484;-81
2021/09/16 04:59:10;;;;;;;13.68;9.65;;;;;;;17.75;100.00;101511.16;1696418;84;21514;-80
2021/09/16 05:01:39;;;;;;;17.85;10.20;;;;;;;17.84;100.00;101515.64;1695976;84;21517;-80
2021/09/16 05:04:06;;;;;;;17.20;10.50;;;;;;;17.91;100.00;101503.20;1696153;84;21149;-79
2021/09/16 05:06:34;;;;;;;17.40;11.18;;;;;;;18.00;100.00;101505.53;1696055;83;21504;-81
2021/09/16 05:09:02;;;;;;;19.67;10.40;;;;;;;18.10;100.00;101501.17;1696548;84;21055;-80
2021/09/16 05:11:29;;;;;;;20.23;11.80;;;;;;;18.20;100.00;101503.38;1696096;84;20910;-81
2021/09/16 05:13:58;;;;;;;17.02;9.68;;;;;;;18.28;100.00;101496.98;1695948;83;20966;-81
2021/09/16 05:16:31;;;;;;;16.27;9.90;;;;;;;18.39;100.00;101496.91;1695893;82;20982;-81
2021/09/16 05:19:01;;;;;;;16.62;9.58;;;;;;;18.52;100.00;101494.09;1696439;83;20975;-81
2021/09/16 05:21:29;;;;;;;15.85;9.33;;;;;;;18.64;100.00;101496.14;1696041;83;20970;-81
2021/09/16 05:23:59;;;;;;;15.60;9.15;;;;;;;18.72;100.00;101495.01;1696998;83;21008;-82
2021/09/16 05:26:27;;;;;;;16.90;9.65;;;;;;;18.78;98.88;101499.73;1696499;83;21005;-81
2021/09/16 05:28:55;;;;;;;16.90;9.65;;;;;;;18.80;97.92;101499.10;1696542;84;21678;-81
2021/09/16 05:31:22;;;;;;;15.43;9.75;;;;;;;18.81;97.11;101499.46;1696741;84;21061;-83
2021/09/16 05:33:52;;;;;;;16.97;9.23;;;;;;;18.81;96.13;101496.83;1696036;83;20998;-82
2021/09/16 05:36:19;;;;;;;22.45;10.15;;;;;;;18.83;95.33;101505.41;1696096;83;21496;-82
2021/09/16 05:38:47;;;;;;;21.75;11.10;;;;;;;18.85;94.83;101503.02;1696165;81;21168;-84
2021/09/16 05:41:14;;;;;;;25.75;11.03;;;;;;;18.87;94.39;101502.39;1696171;83;21137;-83
2021/09/16 05:43:41;;;;;;;24.27;10.50;;;;;;;18.89;93.76;101500.95;1696296;84;20855;-82
2021/09/16 05:46:08;;;;;;;20.75;10.32;;;;;;;18.92;93.38;101508.06;1696168;83;20914;-85
2021/09/16 05:48:35;;;;;;;28.62;10.80;;;;;;;18.94;93.15;101509.27;1696047;84;20977;-83
2021/09/16 05:51:02;;;;;;;21.87;9.90;;;;;;;18.99;92.89;101505.73;1696339;84;20882;-83
2021/09/16 05:53:30;;;;;;;21.48;10.43;;;;;;;19.05;92.66;101512.28;1696156;84;21107;-83
2021/09/16 05:55:58;;;;;;;27.80;10.68;;;;;;;19.11;92.46;101506.47;1696307;83;21504;-84
2021/09/16 05:58:28;;;;;;;26.52;10.43;;;;;;;19.20;91.83;101524.91;1696272;84;21109;-84
2021/09/16 06:00:56;;;;;;;18.85;11.88;;;;;;;19.26;91.30;101521.73;1684727;83;21582;-82
2021/09/16 06:03:23;;;;;;;27.00;10.55;;;;;;;19.33;90.65;101518.07;1688993;83;21094;-84
2021/09/16 06:05:51;;;;;;;34.90;11.50;;;;;;;19.39;90.29;101520.16;1695988;83;22189;-83
2021/09/16 06:08:23;;;;;;;31.93;10.25;;;;;;;19.47;89.92;101521.63;1697514;84;21469;-84
2021/09/16 06:10:54;;;;;;;16.97;10.28;;;;;;;19.55;89.46;101523.11;1698480;83;21028;-81
2021/09/16 06:13:26;;;;;;;19.77;9.03;;;;;;;19.64;88.59;101534.13;1696981;83;21077;-83
2021/09/16 06:15:55;;;;;;;18.42;10.85;;;;;;;19.71;87.89;101535.23;1696206;83;21490;-83
2021/09/16 06:18:27;;;;;;;16.85;10.23;;;;;;;19.78;87.21;101528.45;1696140;84;21654;-82
2021/09/16 06:20:57;;;;;;;18.87;10.25;;;;;;;19.84;86.82;101531.00;1688898;84;21045;-86
2021/09/16 06:23:43;;;;;;;14.20;8.80;;;;;;;19.90;86.52;101529.96;1681425;83;21010;-83
2021/09/16 06:26:12;;;;;;;13.53;8.68;;;;;;;19.99;85.88;101528.27;1680578;84;21686;-83
2021/09/16 06:28:41;;;;;;;14.83;8.93;;;;;;;20.07;85.03;101530.54;1693949;83;20899;-82
2021/09/16 06:31:12;;;;;;;16.20;9.25;;;;;;;20.14;84.24;101528.17;1695195;84;21195;-83
2021/09/16 06:33:41;;;;;;;11.12;9.23;;;;;;;20.21;84.05;101537.66;1707667;83;21513;-81
2021/09/16 06:36:08;;;;;;;10.75;7.75;;;;;;;20.26;83.20;101538.92;1702341;83;21018;-82
2021/09/16 06:38:37;;;;;;;14.58;8.20;;;;;;;20.33;82.34;101538.70;1660250;84;21045;-82
2021/09/16 06:41:04;;;;;;;15.88;8.20;;;;;;;20.39;81.53;101542.08;1711727;83;21046;-81
2021/09/16 06:43:34;;;;;;;13.48;7.28;;;;;;;20.46;81.32;101537.91;1692476;83;21803;-85
2021/09/16 06:46:01;;;;;;;14.87;7.85;;;;;;;20.55;80.79;101540.16;1720512;82;21541;-82
2021/09/16 06:48:28;;;;;;;13.65;7.78;;;;;;;20.63;78.83;101542.92;1692453;83;21544;-82
2021/09/16 06:51:05;;;;;;;13.08;7.75;;;;;;;20.72;78.05;101536.77;1686529;85;21006;-85
2021/09/16 06:53:34;;;;;;;10.70;8.25;;;;;;;20.81;77.55;101537.21;1687566;85;21059;-82
2021/09/16 06:56:01;;;;;;;17.82;7.85;;;;;;;20.89;76.62;101539.97;1695488;83;21539;-85
2021/09/16 06:58:33;;;;;;;11.68;5.85;;;;;;;20.97;76.17;101540.53;1714201;81;20994;-82
2021/09/16 07:01:20;;;;;;;;;;;;;;;;;;;;;
2021/09/16 07:03:46;;;;;;;13.13;6.28;;;;;;;21.17;73.44;101539.97;1700248;82;21134;-83
2021/09/16 07:06:12;;;;;;;14.03;5.67;;;;;;;21.26;72.56;101541.72;1692622;82;21417;-83
2021/09/16 07:08:56;;;;;;;12.45;6.65;;;;;;;21.36;70.93;101540.69;1700279;81;20994;-83
2021/09/16 07:11:23;;;;;;;10.60;6.10;;;;;;;21.45;69.62;101539.78;1719981;82;21816;-80
2021/09/16 07:13:51;;;;;;;7.83;5.97;;;;;;;21.54;69.04;101539.36;1748165;80;21521;-83
2021/09/16 07:16:23;;;;;;;10.78;6.15;;;;;;;21.60;67.38;101543.55;1712576;83;21078;-84
2021/09/16 07:18:52;;;;;;;11.60;6.55;;;;;;;21.70;68.05;101538.70;1717150;82;21046;-81
2021/09/16 07:21:20;;;;;;;8.73;5.90;;;;;;;21.78;68.22;101534.31;1740166;80;21200;-84
2021/09/16 07:23:51;;;;;;;11.48;6.17;;;;;;;21.85;67.67;101537.17;1736080;82;20955;-82
2021/09/16 07:26:20;;;;;;;9.63;6.00;;;;;;;21.92;66.79;101536.94;1739669;81;21169;-80
2021/09/16 07:28:52;;;;;;;12.58;6.62;;;;;;;21.99;66.41;101539.28;1713318;81;21035;-84
2021/09/16 07:31:19;;;;;;;10.13;5.80;;;;;;;22.05;66.33;101536.02;1708439;84;21060;-81
2021/09/16 07:33:50;;;;;;;9.93;6.12;;;;;;;22.13;65.82;101542.70;1707104;84;21767;-80
2021/09/16 07:36:18;;;;;;;14.73;6.65;;;;;;;22.21;64.88;101534.02;1724754;81;21660;-84
2021/09/16 07:38:47;;;;;;;12.25;6.37;;;;;;;22.26;64.44;101540.48;1736751;81;21352;-82
2021/09/16 07:41:18;;;;;;;9.05;5.42;;;;;;;22.33;64.49;101540.70;1728807;80;21610;-85
2021/09/16 07:43:45;;;;;;;7.97;4.80;;;;;;;22.40;62.79;101539.89;1725854;82;21554;-82
2021/09/16 07:46:15;;;;;;;9.45;5.10;;;;;;;22.47;61.14;101540.09;1737066;81;21077;-84
2021/09/16 07:48:43;;;;;;;7.37;4.75;;;;;;;22.53;60.20;101535.50;1711144;80;21577;-87
2021/09/16 07:51:12;;;;;;;6.90;4.70;;;;;;;22.59;59.84;101542.31;1736269;81;21023;-78
2021/09/16 07:53:42;;;;;;;6.08;4.45;;;;;;;22.66;59.00;101540.73;1734697;82;21002;-82
2021/09/16 07:56:11;;;;;;;10.63;4.47;;;;;;;22.77;57.42;101541.45;1729267;81;21028;-84
2021/09/16 07:58:44;;;;;;;9.50;4.90;;;;;;;22.84;56.34;101538.52;1707681;83;21126;-82
2021/09/16 08:01:13;;;;;;;5.62;4.20;;;;;;;22.90;56.15;101544.00;1734617;82;21633;-79
2021/09/16 08:03:42;;;;;;;8.93;4.50;;;;;;;23.01;55.26;101541.53;1721432;82;21566;-82
2021/09/16 08:06:10;;;;;;;12.10;4.67;;;;;;;23.07;54.46;101540.40;1736066;81;21057;-83
2021/09/16 08:08:41;;;;;;;9.33;4.50;;;;;;;23.16;54.35;101542.59;1737353;81;20964;-83
2021/09/16 08:11:11;;;;;;;7.42;3.90;;;;;;;23.21;53.44;101533.66;1761778;81;21130;-83
2021/09/16 08:13:38;;;;;;;9.80;4.30;;;;;;;23.27;53.14;101534.82;1761175;80;21064;-82
2021/09/16 08:16:07;;;;;;;5.83;3.60;;;;;;;23.31;52.85;101534.34;1761080;80;21553;-81
2021/09/16 08:18:38;;;;;;;10.98;4.58;;;;;;;23.42;52.71;101535.37;1761148;80;21105;-84
2021/09/16 08:21:06;;;;;;;7.78;4.55;;;;;;;23.50;52.36;101535.41;1759196;81;21135;-82
2021/09/16 08:23:34;;;;;;;13.18;4.20;;;;;;;23.58;52.16;101532.75;1758259;80;21170;-79
2021/09/16 08:26:06;;;;;;;10.93;4.75;;;;;;;23.68;52.22;101532.09;1738168;82;20978;-82
2021/09/16 08:28:35;;;;;;;8.28;4.70;;;;;;;23.80;51.95;101529.13;1738953;81;21038;-84
2021/09/16 08:31:03;;;;;;;6.08;4.58;;;;;;;23.90;51.83;101527.95;1746498;82;21022;-84
2021/09/16 08:33:32;;;;;;;6.75;4.08;;;;;;;23.98;51.69;101527.12;1756158;80;21034;-81
2021/09/16 08:36:03;;;;;;;9.48;4.60;;;;;;;24.05;51.45;101521.49;1736023;81;21139;-84
2021/09/16 08:38:37;;;;;;;10.65;4.20;;;;;;;24.09;51.67;101522.30;1738157;81;21094;-86
2021/09/16 08:41:14;;;;;;;8.35;4.62;;;;;;;24.16;51.96;101513.20;1732627;80;21034;-82
2021/09/16 08:43:45;;;;;;;9.15;4.70;;;;;;;24.24;51.64;101511.87;1732413;82;21553;-84
2021/09/16 08:46:15;;;;;;;5.62;4.00;;;;;;;24.28;51.11;101510.55;1715992;81;21053;-79
2021/09/16 08:48:45;;;;;;;6.85;4.53;;;;;;;24.33;50.99;101513.51;1695182;83;21260;-85
2021/09/16 08:51:16;;;;;;;6.05;3.92;;;;;;;24.40;50.73;101511.84;1690161;84;20958;-85
2021/09/16 08:53:47;;;;;;;6.62;4.53;;;;;;;24.43;50.76;101512.82;1695327;83;20959;-84
2021/09/16 08:56:19;;;;;;;10.45;4.28;;;;;;;24.41;50.34;101504.19;1694517;83;21525;-79
2021/09/16 08:58:51;;;;;;;;;;;;;;;24.41;50.95;101504.71;1726641;82;21091;-82
2021/09/16 09:01:19;;;;;;;6.30;4.87;;;;;;;24.43;50.27;101502.20;1735747;81;21130;-86
2021/09/16 09:03:46;;;;;;;7.55;4.20;;;;;;;24.46;50.99;101507.66;1732002;80;21039;-83
2021/09/16 09:06:36;;;;;;;5.47;4.30;;;;;;;24.55;50.63;101501.33;1747173;81;21046;-82
2021/09/16 09:09:16;;;;;;;6.28;4.75;;;;;;;24.58;51.33;101497.00;1757450;80;21030;-84
2021/09/16 09:12:04;;;;;;;5.17;4.67;;;;;;;24.66;50.98;101501.80;1742363;82;21021;-84
2021/09/16 09:14:45;;;;;;;8.43;4.85;;;;;;;24.75;50.03;101503.41;1687045;83;21353;-83
2021/09/16 09:17:26;;;;;;;9.00;4.12;;;;;;;24.83;49.68;101497.25;1688475;83;21470;-86
2021/09/16 09:19:58;;;;;;;7.72;4.58;;;;;;;24.98;49.81;101492.05;1714814;82;21010;-82
2021/09/16 09:22:32;;;;;;;6.05;4.87;;;;;;;25.12;50.36;101499.25;1715530;83;21011;-81
2021/09/16 09:25:04;;;;;;;5.90;4.22;;;;;;;25.29;49.94;101496.83;1747008;81;21042;-83
2021/09/16 09:27:36;;;;;;;5.75;4.42;;;;;;;25.43;49.40;101503.22;1715388;82;21594;-85
2021/09/16 09:30:13;;;;;;;7.42;3.85;;;;;;;25.55;49.51;101497.83;1747801;80;21066;-79
2021/09/16 09:32:54;;;;;;;6.30;5.30;;;;;;;25.70;49.49;101494.70;1766523;80;21561;-81
2021/09/16 09:35:35;;;;;;;9.68;5.78;;;;;;;25.84;49.04;101498.42;1765946;81;20990;-79
2021/09/16 09:38:07;;;;;;;11.18;6.42;;;;;;;25.96;48.94;101496.47;1765749;81;21191;-81
2021/09/16 09:40:37;;;;;;;7.78;4.87;;;;;;;26.36;48.37;101493.10;1764912;80;21043;-79
2021/09/16 09:43:22;;;;;;;14.43;4.25;;;;;;;27.45;46.69;101491.13;1766282;81;21079;-82
2021/09/16 09:46:04;;;;;;;6.15;4.95;;;;;;;28.71;44.11;101489.16;1760574;79;20991;-84
2021/09/16 09:48:34;;;;;;;9.48;4.65;;;;;;;29.69;39.50;101490.39;1746453;82;21226;-84
2021/09/16 09:51:04;;;;;;;5.10;3.72;;;;;;;30.18;39.11;101488.63;1766880;81;21081;-87
2021/09/16 09:53:42;;;;;;;6.12;4.70;;;;;;;30.94;36.54;101484.22;1767333;81;21129;-83
2021/09/16 09:56:19;;;;;;;4.55;3.60;;;;;;;31.22;35.99;101480.67;1766600;80;21066;-82
2021/09/16 09:58:46;;;;;;;6.87;3.75;;;;;;;31.99;33.87;101469.52;1746967;81;21537;-81
2021/09/16 10:01:35;;;;;;;7.05;4.30;;;;;;;32.24;33.42;101463.28;1766309;81;21521;-84
2021/09/16 10:04:27;;;;;;;7.50;4.20;;;;;;;32.18;33.62;101472.23;1732845;82;21148;-79
2021/09/16 10:06:56;;;;;;;7.22;4.30;;;;;;;32.78;33.12;101471.30;1761459;81;20987;-85
2021/09/16 10:09:27;;;;;;;11.38;3.77;;;;;;;34.08;31.13;101464.03;1766238;81;21018;-82
2021/09/16 10:11:58;;;;;;;11.68;4.53;;;;;;;34.72;30.21;101463.53;1765814;81;21158;-79
2021/09/16 10:14:28;;;;;;;9.15;3.80;;;;;;;35.04;29.80;101466.81;1766609;81;21038;-83
2021/09/16 10:16:56;;;;;;;8.58;4.20;;;;;;;34.75;29.55;101460.35;1766457;80;21562;-84
2021/09/16 10:19:25;;;;;;;11.50;3.77;;;;;;;34.58;30.07;101456.22;1765652;81;21561;-81
2021/09/16 10:21:52;;;;;;;5.90;3.90;;;;;;;34.47;30.05;101452.50;1765910;81;21066;-81
2021/09/16 10:24:22;;;;;;;8.68;4.15;;;;;;;34.65;29.67;101452.89;1763858;81;21014;-78
2021/09/16 10:26:53;;;;;;;10.18;3.87;;;;;;;34.95;29.71;101456.66;1678795;82;21803;-87
2021/09/16 10:29:32;;;;;;;10.50;3.70;;;;;;;35.40;28.63;101456.64;1733757;82;21066;-84
2021/09/16 10:32:13;;;;;;;14.13;3.80;;;;;;;35.28;28.40;101453.21;1722118;81;21174;-82
2021/09/16 10:34:58;;;;;;;;;;;;;;;34.63;29.07;101446.08;1746244;81;21098;-83
2021/09/16 10:37:36;;;;;;;6.15;3.90;;;;;;;33.94;30.02;101440.59;1765877;80;20236;-85
2021/09/16 10:40:23;;;;;;;7.03;4.22;;;;;;;33.16;29.73;101443.27;1766126;81;21011;-82
2021/09/16 10:42:55;;;;;;;5.53;3.85;;;;;;;32.18;31.41;101447.55;1780485;80;21344;-79
2021/09/16 10:45:39;;;;;;;7.10;4.22;;;;;;;31.58;32.44;101453.19;1748436;82;21544;-80
2021/09/16 10:48:24;;;;;;;14.35;5.22;;;;;;;31.09;33.52;101446.41;1775403;80;21129;-77
2021/09/16 10:50:55;;;;;;;11.28;4.72;;;;;;;30.72;34.76;101445.38;1716246;83;21071;-82
2021/09/16 10:53:41;;;;;;;9.30;4.33;;;;;;;30.35;35.15;101444.27;1717819;82;21078;-82
2021/09/16 10:56:34;;;;;;;5.12;3.90;;;;;;;29.92;36.02;101442.66;1717261;82;21059;-79
2021/09/16 10:59:01;;;;;;;6.37;3.70;;;;;;;29.60;36.85;101439.47;1717826;83;21136;-80
2021/09/16 11:01:54;;;;;;;7.85;3.98;;;;;;;29.44;37.10;101437.20;1717527;83;21542;-79
2021/09/16 11:04:21;;;;;;;12.00;4.10;;;;;;;29.22;37.05;101430.70;1716894;82;21010;-80
2021/09/16 11:06:49;;;;;;;8.98;4.25;;;;;;;29.13;37.74;101427.09;1716971;83;21082;-83
2021/09/16 11:09:27;;;;;;;8.48;4.62;;;;;;;29.09;37.92;101423.17;1717032;82;21114;-86
2021/09/16 11:12:04;;;;;;;8.23;4.15;;;;;;;28.93;37.95;101424.38;1716918;82;21573;-80
2021/09/16 11:14:40;;;;;;;5.33;4.53;;;;;;;28.67;37.84;101425.64;1748433;81;21034;-81
2021/09/16 11:17:13;;;;;;;9.15;4.85;;;;;;;28.37;37.80;101421.08;1749806;80;20974;-82
2021/09/16 11:19:47;;;;;;;6.15;4.30;;;;;;;28.30;38.34;101418.92;1748322;82;21050;-81
2021/09/16 11:22:21;;;;;;;11.48;4.55;;;;;;;28.52;38.55;101417.77;1779522;80;21050;-82
2021/09/16 11:24:43;;;;;;;6.25;4.53;;;;;;;29.09;38.49;101417.31;1748448;81;21161;-83
2021/09/16 11:27:17;;;;;;;9.00;4.22;;;;;;;29.51;37.52;101416.13;1778886;80;21121;-82
2021/09/16 11:29:45;;;;;;;12.65;4.67;;;;;;;29.97;36.67;101404.02;1759997;80;21855;-82